createdAt,value
2022-10-31T00:00:26.453Z,10.98
2022-10-31T00:02:52.774Z,8.88
2022-10-31T00:05:19.123Z,4.40
2022-10-31T00:07:45.459Z,6.50
2022-10-31T00:10:11.810Z,3.17
2022-10-31T00:12:38.127Z,5.50
2022-10-31T00:15:04.766Z,5.30
2022-10-31T00:17:31.074Z,9.98
2022-10-31T00:19:57.776Z,11.73
2022-10-31T00:22:24.101Z,6.68
2022-10-31T00:24:50.404Z,9.70
2022-10-31T00:27:16.898Z,7.18
2022-10-31T00:29:43.226Z,6.25
2022-10-31T00:32:09.539Z,7.23
2022-10-31T00:34:35.867Z,4.70
2022-10-31T00:37:02.190Z,7.50
2022-10-31T00:39:28.502Z,7.88
2022-10-31T00:41:54.824Z,7.45
2022-10-31T00:44:21.139Z,7.20
2022-10-31T00:46:47.449Z,10.18
2022-10-31T00:49:13.758Z,5.70
2022-10-31T00:51:40.147Z,4.85
2022-10-31T00:54:06.566Z,6.70
2022-10-31T00:56:32.872Z,5.73
2022-10-31T00:58:59.436Z,6.93
2022-10-31T01:01:25.842Z,7.55
2022-10-31T01:03:52.202Z,8.55
2022-10-31T01:06:18.590Z,7.28
2022-10-31T01:08:48.129Z,8.83
2022-10-31T01:11:17.721Z,9.50
2022-10-31T01:13:45.167Z,9.85
2022-10-31T01:16:14.862Z,10.60
2022-10-31T01:18:41.894Z,10.70
2022-10-31T01:21:37.441Z,9.80
2022-10-31T01:24:04.084Z,8.95
2022-10-31T01:26:32.432Z,12.65
2022-10-31T01:29:01.290Z,10.88
2022-10-31T01:31:30.471Z,10.68
2022-10-31T01:33:57.445Z,9.43
2022-10-31T01:36:30.177Z,12.82
2022-10-31T01:39:02.155Z,9.30
2022-10-31T01:41:31.674Z,10.95
2022-10-31T01:44:01.265Z,6.32
2022-10-31T01:46:37.503Z,8.97
2022-10-31T01:49:10.422Z,8.98
2022-10-31T01:51:42.502Z,10.75
2022-10-31T01:54:13.324Z,8.10
2022-10-31T01:56:44.544Z,8.65
2022-10-31T01:59:14.972Z,10.37
2022-10-31T02:01:41.601Z,6.53
2022-10-31T02:04:08.786Z,19.58
2022-10-31T02:06:48.143Z,92.60
2022-10-31T02:09:15.206Z,39.25
2022-10-31T02:11:42.135Z,44.10
2022-10-31T02:14:08.477Z,7.32
2022-10-31T02:16:34.794Z,6.97
2022-10-31T02:19:01.118Z,107.97
2022-10-31T02:21:38.106Z,210.60
2022-10-31T02:24:32.252Z,19.00
2022-10-31T02:27:07.882Z,3.90
2022-10-31T02:30:15.609Z,4.22
2022-10-31T02:33:03.140Z,21.85
2022-10-31T02:35:48.199Z,38.35
2022-10-31T02:38:44.297Z,3.27
2022-10-31T02:41:10.531Z,7.40
2022-10-31T02:43:53.222Z,2.95
2022-10-31T02:46:28.814Z,8.38
2022-10-31T02:49:01.329Z,2.60
2022-10-31T02:51:28.171Z,5.83
2022-10-31T02:53:54.471Z,17.38
2022-10-31T02:56:20.894Z,5.25
2022-10-31T02:58:55.300Z,3.90
2022-10-31T03:01:28.487Z,4.70
2022-10-31T03:04:07.099Z,1.13
2022-10-31T03:06:40.362Z,9.90
2022-10-31T03:09:06.606Z,2.72
2022-10-31T03:12:04.660Z,13.88
2022-10-31T03:14:41.938Z,7.00
2022-10-31T03:17:16.234Z,12.10
2022-10-31T03:19:46.582Z,16.45
2022-10-31T03:22:22.637Z,3.13
2022-10-31T03:24:52.361Z,3.10
2022-10-31T03:27:24.180Z,4.05
2022-10-31T03:29:55.524Z,5.03
2022-10-31T03:32:42.062Z,5.35
2022-10-31T03:35:10.919Z,4.05
2022-10-31T03:37:41.413Z,1.48
2022-10-31T03:40:10.119Z,5.28
2022-10-31T03:42:41.442Z,2.53
2022-10-31T03:45:19.944Z,1.08
2022-10-31T03:47:46.416Z,1.08
2022-10-31T03:50:15.298Z,2.20
2022-10-31T03:52:56.988Z,3.67
2022-10-31T03:55:40.136Z,4.07
2022-10-31T03:58:12.048Z,1.73
2022-10-31T04:00:43.013Z,1.27
2022-10-31T04:03:23.889Z,3.45
2022-10-31T04:05:54.206Z,2.60
2022-10-31T04:08:24.571Z,3.53
2022-10-31T04:10:53.500Z,1.42
2022-10-31T04:13:30.401Z,6.78
2022-10-31T04:15:57.507Z,21.15
2022-10-31T04:18:24.990Z,11.30
2022-10-31T04:21:01.558Z,25.87
2022-10-31T04:23:29.181Z,14.40
2022-10-31T04:25:55.748Z,7.53
2022-10-31T04:28:22.478Z,23.70
2022-10-31T04:30:48.857Z,25.08
2022-10-31T04:33:15.180Z,1.00
2022-10-31T04:35:41.523Z,1.67
2022-10-31T04:38:07.835Z,1.77
2022-10-31T04:40:34.130Z,4.28
2022-10-31T04:43:00.755Z,4.05
2022-10-31T04:45:27.326Z,3.90
2022-10-31T04:47:53.619Z,12.23
2022-10-31T04:50:19.954Z,3.90
2022-10-31T04:52:47.273Z,1.90
2022-10-31T04:55:14.722Z,1.65
2022-10-31T04:57:45.082Z,3.20
2022-10-31T05:00:12.796Z,2.97
2022-10-31T05:02:46.497Z,2.40
2022-10-31T05:05:15.021Z,1.67
2022-10-31T05:07:43.337Z,1.00
2022-10-31T05:10:14.842Z,2.20
2022-10-31T05:12:52.743Z,3.40
2022-10-31T05:15:21.263Z,3.45
2022-10-31T05:17:47.877Z,2.95
2022-10-31T05:20:16.545Z,2.70
2022-10-31T05:22:54.169Z,5.80
2022-10-31T05:25:23.356Z,3.28
2022-10-31T05:27:51.767Z,2.97
2022-10-31T05:30:21.199Z,8.98
2022-10-31T05:32:49.044Z,14.93
2022-10-31T05:35:35.692Z,13.40
2022-10-31T05:38:02.194Z,4.18
2022-10-31T05:40:29.194Z,5.75
2022-10-31T05:42:57.672Z,9.60
2022-10-31T05:45:24.805Z,6.82
2022-10-31T05:48:02.572Z,17.13
2022-10-31T05:50:31.849Z,12.05
2022-10-31T05:53:03.946Z,8.23
2022-10-31T05:55:31.092Z,23.83
2022-10-31T05:57:57.753Z,6.85
2022-10-31T06:00:25.264Z,5.70
2022-10-31T06:02:59.715Z,19.27
2022-10-31T06:05:26.371Z,9.70
2022-10-31T06:07:52.664Z,8.63
2022-10-31T06:10:20.290Z,11.10
2022-10-31T06:12:46.613Z,16.00
2022-10-31T06:15:12.919Z,8.55
2022-10-31T06:17:39.247Z,13.50
2022-10-31T06:20:06.845Z,5.03
2022-10-31T06:22:33.486Z,17.63
2022-10-31T06:25:00.033Z,21.97
2022-10-31T06:27:26.563Z,7.78
2022-10-31T06:29:52.958Z,15.75
2022-10-31T06:32:19.811Z,14.93
2022-10-31T06:34:49.064Z,15.40
2022-10-31T06:37:15.969Z,19.70
2022-10-31T06:39:42.291Z,5.88
2022-10-31T06:42:08.620Z,27.45
2022-10-31T06:44:34.922Z,17.17
2022-10-31T06:47:01.261Z,35.13
2022-10-31T06:49:27.614Z,6.70
2022-10-31T06:51:54.002Z,11.30
2022-10-31T06:54:20.349Z,18.15
2022-10-31T06:56:48.316Z,14.60
2022-10-31T06:59:15.620Z,14.32
2022-10-31T07:01:42.445Z,12.60
2022-10-31T07:04:12.293Z,13.32
2022-10-31T07:06:38.832Z,18.65
2022-10-31T07:09:05.660Z,18.38
2022-10-31T07:11:32.242Z,23.63
2022-10-31T07:13:58.562Z,10.37
2022-10-31T07:16:25.087Z,16.15
2022-10-31T07:18:51.558Z,20.60
2022-10-31T07:21:17.913Z,22.40
2022-10-31T07:23:44.218Z,26.75
2022-10-31T07:26:11.746Z,33.77
2022-10-31T07:28:38.113Z,6.13
2022-10-31T07:31:05.469Z,5.70
2022-10-31T07:33:32.970Z,8.23
2022-10-31T07:36:01.457Z,8.50
2022-10-31T07:38:29.151Z,14.07
2022-10-31T07:40:56.575Z,14.23
2022-10-31T07:43:24.178Z,16.00
2022-10-31T07:45:53.508Z,18.52
2022-10-31T07:48:21.711Z,15.90
2022-10-31T07:50:49.079Z,9.87
2022-10-31T07:53:16.759Z,8.25
2022-10-31T07:55:44.996Z,12.15
2022-10-31T07:58:15.563Z,8.20
2022-10-31T08:00:45.301Z,8.25
2022-10-31T08:03:15.051Z,21.37
2022-10-31T08:05:42.928Z,11.10
2022-10-31T08:08:11.079Z,10.73
2022-10-31T08:10:38.941Z,30.70
2022-10-31T08:13:14.772Z,14.18
2022-10-31T08:15:43.315Z,12.87
2022-10-31T08:18:15.158Z,15.05
2022-10-31T08:20:43.385Z,18.48
2022-10-31T08:23:12.151Z,8.50
2022-10-31T08:25:39.855Z,8.70
2022-10-31T08:28:08.207Z,7.37
2022-10-31T08:30:38.528Z,10.15
2022-10-31T08:33:12.402Z,14.88
2022-10-31T08:35:39.955Z,11.80
2022-10-31T08:38:08.919Z,9.73
2022-10-31T08:40:39.181Z,9.37
2022-10-31T08:43:10.389Z,9.93
2022-10-31T08:45:37.588Z,11.45
2022-10-31T08:48:07.610Z,9.48
2022-10-31T08:50:36.728Z,14.00
2022-10-31T08:53:12.979Z,10.73
2022-10-31T08:55:41.127Z,10.40
2022-10-31T08:58:13.908Z,11.85
2022-10-31T09:00:41.434Z,11.30
2022-10-31T09:03:13.747Z,11.02
2022-10-31T09:05:41.404Z,14.97
2022-10-31T09:08:14.775Z,16.15
2022-10-31T09:10:43.926Z,14.75
2022-10-31T09:13:14.048Z,12.18
2022-10-31T09:15:42.695Z,11.85
2022-10-31T09:18:10.129Z,11.53
2022-10-31T09:20:38.293Z,11.93
2022-10-31T09:23:07.622Z,14.90
2022-10-31T09:25:36.279Z,17.15
2022-10-31T09:28:04.885Z,16.55
2022-10-31T09:30:33.916Z,17.93
2022-10-31T09:33:03.039Z,15.07
2022-10-31T09:35:30.337Z,15.55
2022-10-31T09:37:59.126Z,17.98
2022-10-31T09:40:32.770Z,17.08
2022-10-31T09:43:32.763Z,18.53
2022-10-31T09:46:30.890Z,22.77
2022-10-31T09:49:11.300Z,20.42
2022-10-31T09:51:52.961Z,26.00
2022-10-31T09:54:26.922Z,21.40
2022-10-31T09:56:53.711Z,21.33
2022-10-31T09:59:34.299Z,20.58
2022-10-31T10:02:47.044Z,21.75
2022-10-31T10:05:20.690Z,26.15
2022-10-31T10:08:12.955Z,23.25
2022-10-31T10:10:55.552Z,22.40
2022-10-31T10:13:52.300Z,21.33
2022-10-31T10:16:21.626Z,19.45
2022-10-31T10:18:59.857Z,19.25
2022-10-31T10:21:40.531Z,19.42
2022-10-31T10:24:15.916Z,19.20
2022-10-31T10:26:51.450Z,20.38
2022-10-31T10:29:31.960Z,19.33
2022-10-31T10:32:02.348Z,21.58
2022-10-31T10:34:38.143Z,19.83
2022-10-31T10:37:12.838Z,18.53
2022-10-31T10:39:44.287Z,16.70
2022-10-31T10:42:35.458Z,17.08
2022-10-31T10:45:34.123Z,17.45
2022-10-31T10:48:10.375Z,19.38
2022-10-31T10:50:45.404Z,14.33
2022-10-31T10:53:32.594Z,19.70
2022-10-31T10:56:17.692Z,17.23
2022-10-31T10:58:44.264Z,22.48
2022-10-31T11:03:43.065Z,19.90
2022-10-31T11:06:23.060Z,20.67
2022-10-31T11:08:50.667Z,26.75
2022-10-31T11:11:28.855Z,23.70
2022-10-31T11:14:13.242Z,15.38
2022-10-31T11:16:43.536Z,13.60
2022-10-31T11:19:12.589Z,20.92
2022-10-31T11:21:39.111Z,17.17
2022-10-31T11:24:11.543Z,15.80
2022-10-31T11:26:40.241Z,17.52
2022-10-31T11:29:14.785Z,18.07
2022-10-31T11:31:41.822Z,21.48
2022-10-31T11:34:16.979Z,22.42
2022-10-31T11:36:45.245Z,18.52
2022-10-31T11:39:21.475Z,22.10
2022-10-31T11:41:49.186Z,24.50
2022-10-31T11:44:20.589Z,24.92
2022-10-31T11:46:52.693Z,25.00
2022-10-31T11:49:31.850Z,23.20
2022-10-31T11:52:02.701Z,25.25
2022-10-31T11:54:31.935Z,23.00
2022-10-31T11:56:58.288Z,28.65
2022-10-31T11:59:32.717Z,25.75
2022-10-31T12:02:01.296Z,27.83
2022-10-31T12:04:51.766Z,32.50
2022-10-31T12:07:18.086Z,37.47
2022-10-31T12:09:44.437Z,26.95
2022-10-31T12:12:35.417Z,26.42
2022-10-31T12:15:10.885Z,29.55
2022-10-31T12:18:01.512Z,25.90
2022-10-31T12:20:49.732Z,36.03
2022-10-31T12:23:34.965Z,23.90
2022-10-31T12:26:11.617Z,30.17
2022-10-31T12:28:49.885Z,29.25
2022-10-31T12:31:30.131Z,28.35
2022-10-31T12:34:02.455Z,31.27
2022-10-31T12:36:43.875Z,30.70
2022-10-31T12:39:19.629Z,24.75
2022-10-31T12:42:19.353Z,36.70
2022-10-31T12:45:21.199Z,34.90
2022-10-31T12:48:05.591Z,30.70
2022-10-31T12:51:21.347Z,32.72
2022-10-31T12:54:34.790Z,29.33
2022-10-31T12:57:19.127Z,35.42
2022-10-31T12:59:53.925Z,33.38
2022-10-31T13:02:43.571Z,32.03
2022-10-31T13:05:34.019Z,31.38
2022-10-31T13:08:15.324Z,30.00
2022-10-31T13:13:45.514Z,31.50
2022-10-31T13:16:21.150Z,27.60
2022-10-31T13:18:52.906Z,32.55
2022-10-31T13:21:27.161Z,29.60
2022-10-31T13:23:55.678Z,26.45
2022-10-31T13:26:33.973Z,33.38
2022-10-31T13:29:10.047Z,32.37
2022-10-31T13:31:41.081Z,35.13
2022-10-31T13:34:19.201Z,35.30
2022-10-31T13:37:16.659Z,36.90
2022-10-31T13:39:49.412Z,32.22
2022-10-31T13:42:24.548Z,37.63
2022-10-31T13:44:50.897Z,37.55
2022-10-31T13:47:26.887Z,42.25
2022-10-31T13:50:19.521Z,29.70
2022-10-31T13:52:46.348Z,33.95
2022-10-31T13:55:40.757Z,32.40
2022-10-31T13:58:39.700Z,32.58
2022-10-31T14:01:11.877Z,31.20
2022-10-31T14:04:06.125Z,33.78
2022-10-31T14:06:38.504Z,29.98
2022-10-31T14:09:05.626Z,31.77
2022-10-31T14:11:36.106Z,30.15
2022-10-31T14:14:03.990Z,31.13
2022-10-31T14:16:32.941Z,35.88
2022-10-31T14:19:06.659Z,29.88
2022-10-31T14:21:41.426Z,25.90
2022-10-31T14:24:26.123Z,29.27
2022-10-31T14:26:58.102Z,29.52
2022-10-31T14:29:32.573Z,30.02
2022-10-31T14:32:20.381Z,31.85
2022-10-31T14:34:58.550Z,35.60
2022-10-31T14:37:50.409Z,29.90
2022-10-31T14:40:26.961Z,25.00
2022-10-31T14:43:15.230Z,30.30
2022-10-31T14:45:49.167Z,32.17
2022-10-31T14:48:37.762Z,28.80
2022-10-31T14:51:13.177Z,31.50
2022-10-31T14:53:56.064Z,30.73
2022-10-31T14:56:27.224Z,32.30
2022-10-31T14:58:56.295Z,30.13
2022-10-31T15:01:54.520Z,29.90
2022-10-31T15:04:27.293Z,35.63
2022-10-31T15:07:01.359Z,34.58
2022-10-31T15:09:30.908Z,25.80
2022-10-31T15:12:00.188Z,28.52
2022-10-31T15:14:29.446Z,28.77
2022-10-31T15:17:01.917Z,32.22
2022-10-31T15:19:31.173Z,33.70
2022-10-31T15:21:58.692Z,37.75
2022-10-31T15:24:36.013Z,35.60
2022-10-31T15:27:05.139Z,25.87
2022-10-31T15:29:32.386Z,31.83
2022-10-31T15:32:01.728Z,33.00
2022-10-31T15:34:39.029Z,35.75
2022-10-31T15:37:10.182Z,33.42
2022-10-31T15:39:36.490Z,35.23
2022-10-31T15:42:03.023Z,28.02
2022-10-31T15:44:36.194Z,32.25
2022-10-31T15:47:07.397Z,29.77
2022-10-31T15:49:51.040Z,29.52
2022-10-31T15:52:35.702Z,37.03
2022-10-31T15:55:06.600Z,29.42
2022-10-31T15:57:33.869Z,26.30
2022-10-31T16:00:00.216Z,29.85
2022-10-31T16:02:28.322Z,32.58
2022-10-31T16:05:01.959Z,29.83
2022-10-31T16:07:30.253Z,26.98
2022-10-31T16:09:59.697Z,28.00
2022-10-31T16:12:33.282Z,32.15
2022-10-31T16:14:59.620Z,29.60
2022-10-31T16:17:28.256Z,35.67
2022-10-31T16:19:59.678Z,32.15
2022-10-31T16:22:29.776Z,31.40
2022-10-31T16:25:05.164Z,37.95
2022-10-31T16:27:34.471Z,32.65
2022-10-31T16:30:04.513Z,30.90
2022-10-31T16:32:54.444Z,34.80
2022-10-31T16:35:32.441Z,28.73
2022-10-31T16:37:58.850Z,27.77
2022-10-31T16:40:25.792Z,33.50
2022-10-31T16:42:52.944Z,25.43
2022-10-31T16:45:25.861Z,29.02
2022-10-31T16:47:53.017Z,26.52
2022-10-31T16:50:25.905Z,30.90
2022-10-31T16:53:12.449Z,32.80
2022-10-31T16:55:47.675Z,34.47
2022-10-31T16:58:35.314Z,30.27
2022-10-31T17:01:06.657Z,28.90
2022-10-31T17:03:33.711Z,33.75
2022-10-31T17:06:00.062Z,30.08
2022-10-31T17:08:26.404Z,30.53
2022-10-31T17:10:55.897Z,25.15
2022-10-31T17:13:25.947Z,33.03
2022-10-31T17:15:56.458Z,28.70
2022-10-31T17:18:27.398Z,34.15
2022-10-31T17:21:03.225Z,29.73
2022-10-31T17:23:30.283Z,33.30
2022-10-31T17:25:57.216Z,31.60
2022-10-31T17:28:23.588Z,33.22
2022-10-31T17:30:50.115Z,30.85
2022-10-31T17:38:58.049Z,26.48
2022-10-31T17:49:42.841Z,29.85
2022-10-31T17:52:15.201Z,30.92
2022-10-31T17:54:45.822Z,28.55
2022-10-31T17:57:13.691Z,37.05
2022-10-31T17:59:40.101Z,30.57
2022-10-31T18:02:08.787Z,35.03
2022-10-31T18:04:35.693Z,29.40
2022-10-31T18:07:02.483Z,34.78
2022-10-31T18:09:28.802Z,32.95
2022-10-31T18:11:55.222Z,27.27
2022-10-31T18:14:21.544Z,29.95
2022-10-31T18:16:47.909Z,31.67
2022-10-31T18:19:16.114Z,30.73
2022-10-31T18:21:44.381Z,34.97
2022-10-31T18:24:10.721Z,27.77
2022-10-31T18:26:37.189Z,27.35
2022-10-31T18:29:04.001Z,28.08
2022-10-31T18:31:30.350Z,31.25
2022-10-31T18:33:57.458Z,28.08
2022-10-31T18:36:24.385Z,25.30
2022-10-31T18:38:50.740Z,27.05
2022-10-31T18:41:17.166Z,29.85
2022-10-31T18:43:43.482Z,28.77
2022-10-31T18:46:13.304Z,32.15
2022-10-31T18:48:43.989Z,27.80
2022-10-31T18:51:14.106Z,27.40
2022-10-31T18:53:40.660Z,32.05
2022-10-31T18:56:08.693Z,28.02
2022-10-31T18:58:35.470Z,33.03
2022-10-31T19:01:09.522Z,29.93
2022-10-31T19:03:36.906Z,28.85
2022-10-31T19:06:03.799Z,25.23
2022-10-31T19:08:31.066Z,31.30
2022-10-31T19:11:05.206Z,30.52
2022-10-31T19:13:32.935Z,23.90
2022-10-31T19:16:10.781Z,27.38
2022-10-31T19:18:38.085Z,23.73
2022-10-31T19:21:08.382Z,23.40
2022-10-31T19:23:35.289Z,28.80
2022-10-31T19:26:02.771Z,23.37
2022-10-31T19:28:31.143Z,28.15
2022-10-31T19:30:58.073Z,21.88
2022-10-31T19:33:29.468Z,21.85
2022-10-31T19:36:09.513Z,25.40
2022-10-31T19:38:37.382Z,23.50
2022-10-31T19:41:07.343Z,25.15
2022-10-31T19:43:34.201Z,27.50
2022-10-31T19:46:02.566Z,19.40
2022-10-31T19:48:29.138Z,17.92
2022-10-31T19:51:04.629Z,23.57
2022-10-31T19:53:31.768Z,20.92
2022-10-31T19:55:58.643Z,19.63
2022-10-31T19:58:25.566Z,20.85
2022-10-31T20:00:52.067Z,17.75
2022-10-31T20:03:21.591Z,16.60
2022-10-31T20:05:50.150Z,19.63
2022-10-31T20:08:19.336Z,18.60
2022-10-31T20:11:03.675Z,18.42
2022-10-31T20:13:32.129Z,16.98
2022-10-31T20:16:01.034Z,18.00
2022-10-31T20:18:27.794Z,18.38
2022-10-31T20:20:54.318Z,15.57
2022-10-31T20:23:20.655Z,20.30
2022-10-31T20:25:48.840Z,13.77
2022-10-31T20:28:15.584Z,14.03
2022-10-31T20:30:42.726Z,16.30
2022-10-31T20:33:09.045Z,12.68
2022-10-31T20:35:40.106Z,13.88
2022-10-31T20:38:08.010Z,14.32
2022-10-31T20:40:35.273Z,13.03
2022-10-31T20:43:02.899Z,14.18
2022-10-31T20:45:30.454Z,13.35
2022-10-31T20:47:57.863Z,15.07
2022-10-31T20:50:25.602Z,11.27
2022-10-31T20:52:52.344Z,15.23
2022-10-31T20:55:18.786Z,10.27
2022-10-31T20:57:45.143Z,11.30
2022-10-31T21:00:15.187Z,13.15
2022-10-31T21:02:42.934Z,11.80
2022-10-31T21:05:12.833Z,10.87
2022-10-31T21:07:39.713Z,8.32
2022-10-31T21:10:15.982Z,18.70
2022-10-31T21:12:44.177Z,16.00
2022-10-31T21:15:12.325Z,8.25
2022-10-31T21:17:38.613Z,13.70
2022-10-31T21:20:06.853Z,11.60
2022-10-31T21:22:33.853Z,12.82
2022-10-31T21:25:00.417Z,10.20
2022-10-31T21:27:26.898Z,7.90
2022-10-31T21:29:53.369Z,9.97
2022-10-31T21:32:19.722Z,7.38
2022-10-31T21:34:48.089Z,8.27
2022-10-31T21:37:14.386Z,11.27
2022-10-31T21:39:40.684Z,10.77
2022-10-31T21:42:07.000Z,16.03
2022-10-31T21:44:33.597Z,12.23
2022-10-31T21:46:59.915Z,8.63
2022-10-31T21:49:26.216Z,13.73
2022-10-31T21:51:52.514Z,12.00
2022-10-31T21:54:27.910Z,8.33
2022-10-31T21:56:55.612Z,10.95
2022-10-31T21:59:22.108Z,10.45
2022-10-31T22:01:48.992Z,11.27
2022-10-31T22:04:15.696Z,10.43
2022-10-31T22:06:42.106Z,13.37
2022-10-31T22:09:11.606Z,11.82
2022-10-31T22:11:39.804Z,9.70
2022-10-31T22:14:06.162Z,8.80
2022-10-31T22:16:35.984Z,7.32
2022-10-31T22:19:05.628Z,17.10
2022-10-31T22:21:44.150Z,5.47
2022-10-31T22:24:11.168Z,9.27
2022-10-31T22:26:38.533Z,5.35
2022-10-31T22:29:07.523Z,7.93
2022-10-31T22:31:37.106Z,13.73
2022-10-31T22:34:03.396Z,10.30
2022-10-31T22:36:32.026Z,16.63
2022-10-31T22:38:59.027Z,9.57
2022-10-31T22:41:28.501Z,8.75
2022-10-31T22:43:55.994Z,9.77
2022-10-31T22:46:24.958Z,8.75
2022-10-31T22:48:55.771Z,11.63
2022-10-31T22:51:24.800Z,14.07
2022-10-31T22:53:51.658Z,8.90
2022-10-31T22:56:20.531Z,10.00
2022-10-31T22:58:48.222Z,8.18
2022-10-31T23:01:17.892Z,5.88
2022-10-31T23:03:45.130Z,8.00
2022-10-31T23:06:14.341Z,12.68
2022-10-31T23:08:41.342Z,12.67
2022-10-31T23:11:19.882Z,10.38
2022-10-31T23:14:06.950Z,5.88
2022-10-31T23:16:34.261Z,7.90
2022-10-31T23:19:01.470Z,14.20
2022-10-31T23:21:46.439Z,10.23
2022-10-31T23:24:12.779Z,10.27
2022-10-31T23:26:58.534Z,8.27
2022-10-31T23:29:24.973Z,7.28
2022-10-31T23:31:54.527Z,6.90
2022-10-31T23:34:22.407Z,9.77
2022-10-31T23:36:49.180Z,12.00
2022-10-31T23:39:15.502Z,8.25
2022-10-31T23:41:42.037Z,7.35
2022-10-31T23:44:08.373Z,15.00
2022-10-31T23:46:35.189Z,10.17
2022-10-31T23:49:01.600Z,11.50
2022-10-31T23:51:27.893Z,8.52
2022-10-31T23:53:54.187Z,14.52
2022-10-31T23:56:20.573Z,10.57
2022-10-31T23:58:46.910Z,10.50
